createdAt,value
2022-12-29T00:01:12.218Z,94664.84
2022-12-29T00:03:38.682Z,94672.53
2022-12-29T00:06:05.075Z,94673.34
2022-12-29T00:08:31.355Z,94663.94
2022-12-29T00:10:57.612Z,94663.97
2022-12-29T00:13:23.857Z,94661.22
2022-12-29T00:15:50.135Z,94665.28
2022-12-29T00:18:16.399Z,94665.25
2022-12-29T00:20:44.317Z,94677.25
2022-12-29T00:23:10.591Z,94682.69
2022-12-29T00:25:36.884Z,94674.31
2022-12-29T00:28:07.204Z,94662.44
2022-12-29T00:30:33.934Z,94677.75
2022-12-29T00:33:00.184Z,94679.69
2022-12-29T00:35:26.444Z,94679.69
2022-12-29T00:37:52.692Z,94667.06
2022-12-29T00:40:18.951Z,94671.31
2022-12-29T00:42:45.205Z,94681.00
2022-12-29T00:45:11.452Z,94684.47
2022-12-29T00:47:37.700Z,94668.19
2022-12-29T00:50:03.934Z,94676.75
2022-12-29T00:52:30.187Z,94673.59
2022-12-29T00:54:56.446Z,94666.53
2022-12-29T00:57:22.689Z,94672.47
2022-12-29T00:59:48.944Z,94674.88
2022-12-29T01:02:15.309Z,94671.16
2022-12-29T01:04:41.710Z,94669.69
2022-12-29T01:07:07.985Z,94680.69
2022-12-29T01:09:34.225Z,94678.75
2022-12-29T01:12:00.504Z,94677.03
2022-12-29T01:14:26.788Z,94683.66
2022-12-29T01:16:53.032Z,94681.66
2022-12-29T01:19:19.292Z,94676.09
2022-12-29T01:21:45.566Z,94684.09
2022-12-29T01:24:11.816Z,94685.28
2022-12-29T01:26:38.074Z,94690.53
2022-12-29T01:29:04.332Z,94680.34
2022-12-29T01:31:30.622Z,94684.41
2022-12-29T01:33:56.921Z,94679.81
2022-12-29T01:36:23.218Z,94700.66
2022-12-29T01:38:49.557Z,94698.91
2022-12-29T01:41:15.797Z,94701.34
2022-12-29T01:43:42.076Z,94706.78
2022-12-29T01:46:08.383Z,94703.50
2022-12-29T01:48:34.651Z,94702.50
2022-12-29T01:51:00.917Z,94698.91
2022-12-29T01:53:27.174Z,94705.25
2022-12-29T01:55:53.435Z,94708.88
2022-12-29T01:58:19.675Z,94706.03
2022-12-29T02:00:45.988Z,94696.25
2022-12-29T02:03:12.452Z,94699.84
2022-12-29T02:05:38.797Z,94703.16
2022-12-29T02:08:05.053Z,94697.72
2022-12-29T02:10:31.301Z,94700.81
2022-12-29T02:12:57.561Z,94707.44
2022-12-29T02:15:23.801Z,94697.91
2022-12-29T02:17:50.057Z,94695.09
2022-12-29T02:20:16.335Z,94687.47
2022-12-29T02:22:42.588Z,94682.94
2022-12-29T02:25:08.839Z,94696.38
2022-12-29T02:27:35.084Z,94690.28
2022-12-29T02:30:01.337Z,94697.88
2022-12-29T02:32:27.581Z,94703.63
2022-12-29T02:34:53.862Z,94703.78
2022-12-29T02:37:20.116Z,94700.00
2022-12-29T02:39:46.392Z,94702.00
2022-12-29T02:42:12.650Z,94704.63
2022-12-29T02:44:38.925Z,94693.75
2022-12-29T02:47:05.191Z,94691.50
2022-12-29T02:49:31.434Z,94683.97
2022-12-29T02:51:57.693Z,94680.34
2022-12-29T02:54:23.951Z,94670.94
2022-12-29T02:56:50.240Z,94670.47
2022-12-29T02:59:16.479Z,94672.09
2022-12-29T03:01:44.664Z,94670.38
2022-12-29T03:04:11.010Z,94671.59
2022-12-29T03:06:37.319Z,94658.78
2022-12-29T03:09:03.603Z,94661.41
2022-12-29T03:11:29.864Z,94652.69
2022-12-29T03:13:56.109Z,94659.41
2022-12-29T03:16:22.455Z,94659.25
2022-12-29T03:18:48.766Z,94665.50
2022-12-29T03:21:15.011Z,94652.00
2022-12-29T03:23:41.268Z,94646.38
2022-12-29T03:26:07.547Z,94655.56
2022-12-29T03:28:33.803Z,94648.38
2022-12-29T03:31:00.580Z,94649.19
2022-12-29T03:33:26.880Z,94644.75
2022-12-29T03:35:53.144Z,94648.06
2022-12-29T03:38:19.404Z,94648.47
2022-12-29T03:40:45.723Z,94661.31
2022-12-29T03:43:11.962Z,94658.72
2022-12-29T03:45:38.213Z,94652.16
2022-12-29T03:48:04.480Z,94670.88
2022-12-29T03:50:30.721Z,94663.34
2022-12-29T03:52:56.974Z,94645.06
2022-12-29T03:55:23.241Z,94640.63
2022-12-29T03:57:49.489Z,94643.38
2022-12-29T04:00:15.740Z,94646.66
2022-12-29T04:02:42.251Z,94638.09
2022-12-29T04:05:08.698Z,94637.09
2022-12-29T04:07:34.951Z,94638.84
2022-12-29T04:10:01.230Z,94626.66
2022-12-29T04:12:27.560Z,94620.09
2022-12-29T04:14:53.846Z,94615.72
2022-12-29T04:17:20.135Z,94614.69
2022-12-29T04:19:46.582Z,94613.56
2022-12-29T04:22:12.857Z,94614.38
2022-12-29T04:24:39.100Z,94632.91
2022-12-29T04:27:05.360Z,94638.03
2022-12-29T04:29:31.604Z,94625.72
2022-12-29T04:31:57.868Z,94637.84
2022-12-29T04:34:24.139Z,94627.03
2022-12-29T04:36:50.390Z,94631.03
2022-12-29T04:39:16.648Z,94637.56
2022-12-29T04:41:42.933Z,94630.84
2022-12-29T04:44:09.185Z,94636.97
2022-12-29T04:46:35.505Z,94641.75
2022-12-29T04:49:01.779Z,94637.31
2022-12-29T04:51:28.044Z,94638.25
2022-12-29T04:53:54.300Z,94643.16
2022-12-29T04:56:20.559Z,94642.84
2022-12-29T04:58:46.816Z,94642.84
2022-12-29T05:01:13.101Z,94643.34
2022-12-29T05:03:40.412Z,94647.28
2022-12-29T05:06:06.734Z,94638.09
2022-12-29T05:08:33.672Z,94636.91
2022-12-29T05:10:59.935Z,94628.84
2022-12-29T05:13:26.224Z,94641.47
2022-12-29T05:15:52.724Z,94644.25
2022-12-29T05:18:19.063Z,94650.16
2022-12-29T05:20:46.406Z,94644.41
2022-12-29T05:23:12.662Z,94648.84
2022-12-29T05:25:39.005Z,94649.00
2022-12-29T05:28:05.248Z,94656.38
2022-12-29T05:30:31.500Z,94650.50
2022-12-29T05:32:57.786Z,94645.09
2022-12-29T05:35:24.026Z,94651.53
2022-12-29T05:37:50.276Z,94646.44
2022-12-29T05:40:16.526Z,94647.78
2022-12-29T05:42:43.588Z,94649.91
2022-12-29T05:45:09.858Z,94642.03
2022-12-29T05:47:36.127Z,94651.22
2022-12-29T05:50:02.389Z,94656.13
2022-12-29T05:52:28.676Z,94654.44
2022-12-29T05:54:54.946Z,94659.69
2022-12-29T05:57:21.229Z,94657.06
2022-12-29T05:59:47.481Z,94659.19
2022-12-29T06:02:13.873Z,94659.81
2022-12-29T06:04:40.477Z,94658.19
2022-12-29T06:07:06.762Z,94655.69
2022-12-29T06:09:33.529Z,94656.19
2022-12-29T06:11:59.787Z,94663.25
2022-12-29T06:14:26.052Z,94661.09
2022-12-29T06:16:52.427Z,94663.19
2022-12-29T06:19:18.890Z,94659.44
2022-12-29T06:21:45.159Z,94659.69
2022-12-29T06:24:11.423Z,94650.75
2022-12-29T06:26:37.701Z,94660.75
2022-12-29T06:29:03.964Z,94657.94
2022-12-29T06:31:30.417Z,94649.53
2022-12-29T06:33:56.711Z,94646.25
2022-12-29T06:36:22.984Z,94642.00
2022-12-29T06:38:49.240Z,94642.00
2022-12-29T06:41:15.492Z,94633.97
2022-12-29T06:43:41.785Z,94639.91
2022-12-29T06:46:08.075Z,94638.41
2022-12-29T06:48:34.403Z,94632.16
2022-12-29T06:51:00.681Z,94630.84
2022-12-29T06:53:26.969Z,94629.22
2022-12-29T06:55:53.241Z,94632.09
2022-12-29T06:58:19.477Z,94640.28
2022-12-29T07:00:45.876Z,94646.09
2022-12-29T07:03:12.219Z,94642.63
2022-12-29T07:05:38.492Z,94651.50
2022-12-29T07:08:04.780Z,94641.34
2022-12-29T07:10:31.052Z,94645.44
2022-12-29T07:12:57.311Z,94654.00
2022-12-29T07:15:23.571Z,94649.00
2022-12-29T07:17:49.830Z,94656.06
2022-12-29T07:20:16.076Z,94657.38
2022-12-29T07:22:42.329Z,94656.38
2022-12-29T07:25:08.585Z,94661.50
2022-12-29T07:27:34.846Z,94663.88
2022-12-29T07:30:01.098Z,94648.13
2022-12-29T07:32:27.332Z,94657.63
2022-12-29T07:34:53.600Z,94655.63
2022-12-29T07:37:19.861Z,94657.25
2022-12-29T07:39:46.122Z,94672.72
2022-12-29T07:42:12.365Z,94679.47
2022-12-29T07:44:38.637Z,94668.16
2022-12-29T07:47:04.905Z,94666.19
2022-12-29T07:49:31.158Z,94672.84
2022-12-29T07:51:57.416Z,94678.28
2022-12-29T07:54:24.210Z,94671.03
2022-12-29T07:56:50.560Z,94677.91
2022-12-29T07:59:16.822Z,94682.50
2022-12-29T08:01:43.228Z,94683.13
2022-12-29T08:04:09.646Z,94672.44
2022-12-29T08:06:35.980Z,94680.81
2022-12-29T08:09:11.087Z,94679.75
2022-12-29T08:11:39.796Z,94684.47
2022-12-29T08:14:06.052Z,94681.13
2022-12-29T08:16:32.383Z,94686.41
2022-12-29T08:18:58.681Z,94694.75
2022-12-29T08:21:24.923Z,94697.91
2022-12-29T08:23:51.202Z,94706.00
2022-12-29T08:26:17.566Z,94705.28
2022-12-29T08:28:43.837Z,94704.94
2022-12-29T08:31:10.141Z,94711.81
2022-12-29T08:33:36.431Z,94716.25
2022-12-29T08:36:02.692Z,94708.44
2022-12-29T08:38:28.939Z,94708.78
2022-12-29T08:40:55.200Z,94729.34
2022-12-29T08:43:21.497Z,94719.00
2022-12-29T08:45:47.752Z,94719.31
2022-12-29T08:48:14.005Z,94715.56
2022-12-29T08:50:40.264Z,94719.94
2022-12-29T08:53:06.599Z,94720.91
2022-12-29T08:55:32.870Z,94711.06
2022-12-29T08:57:59.149Z,94718.97
2022-12-29T09:00:25.401Z,94707.63
2022-12-29T09:02:51.782Z,94698.09
2022-12-29T09:05:18.142Z,94712.56
2022-12-29T09:07:44.688Z,94710.66
2022-12-29T09:10:10.964Z,94696.53
2022-12-29T09:12:37.248Z,94692.53
2022-12-29T09:15:03.613Z,94687.81
2022-12-29T09:17:29.888Z,94687.94
2022-12-29T09:19:56.147Z,94699.59
2022-12-29T09:22:22.409Z,94707.31
2022-12-29T09:24:48.656Z,94707.16
2022-12-29T09:27:14.917Z,94715.97
2022-12-29T09:29:41.161Z,94721.19
2022-12-29T09:32:08.224Z,94718.50
2022-12-29T09:34:34.849Z,94726.16
2022-12-29T09:37:01.106Z,94729.31
2022-12-29T09:39:27.357Z,94738.81
2022-12-29T09:41:53.656Z,94725.34
2022-12-29T09:44:19.927Z,94734.97
2022-12-29T09:46:46.281Z,94743.06
2022-12-29T09:49:12.635Z,94733.81
2022-12-29T09:51:38.966Z,94744.09
2022-12-29T09:54:05.236Z,94753.03
2022-12-29T09:56:31.515Z,94752.22
2022-12-29T09:58:57.771Z,94746.91
2022-12-29T10:01:24.137Z,94745.44
2022-12-29T10:03:50.507Z,94754.78
2022-12-29T10:06:16.761Z,94749.66
2022-12-29T10:08:43.030Z,94748.84
2022-12-29T10:11:09.282Z,94732.00
2022-12-29T10:13:35.534Z,94736.56
2022-12-29T10:16:01.858Z,94745.44
2022-12-29T10:18:28.131Z,94736.88
2022-12-29T10:20:54.385Z,94734.97
2022-12-29T10:23:20.629Z,94719.44
2022-12-29T10:25:46.886Z,94707.38
2022-12-29T10:28:13.142Z,94713.06
2022-12-29T10:30:39.411Z,94703.72
2022-12-29T10:33:05.716Z,94693.94
2022-12-29T10:35:31.995Z,94700.06
2022-12-29T10:37:58.265Z,94689.34
2022-12-29T10:40:24.522Z,94692.53
2022-12-29T10:42:50.796Z,94683.91
2022-12-29T10:45:17.094Z,94672.00
2022-12-29T10:47:43.376Z,94671.81
2022-12-29T10:50:09.617Z,94667.19
2022-12-29T10:52:35.867Z,94665.38
2022-12-29T10:55:02.141Z,94653.47
2022-12-29T10:57:28.396Z,94654.56
2022-12-29T10:59:54.629Z,94640.84
2022-12-29T11:02:20.979Z,94633.22
2022-12-29T11:04:47.279Z,94637.22
2022-12-29T11:07:16.364Z,94635.03
2022-12-29T11:09:43.552Z,94627.88
2022-12-29T11:12:10.100Z,94627.88
2022-12-29T11:14:36.342Z,94620.56
2022-12-29T11:17:02.616Z,94615.81
2022-12-29T11:19:28.875Z,94611.59
2022-12-29T11:21:55.154Z,94612.47
2022-12-29T11:24:21.419Z,94617.03
2022-12-29T11:26:47.704Z,94617.94
2022-12-29T11:29:13.984Z,94619.56
2022-12-29T11:31:40.331Z,94619.25
2022-12-29T11:34:06.642Z,94617.38
2022-12-29T11:36:32.886Z,94621.28
2022-12-29T11:38:59.851Z,94619.03
2022-12-29T11:41:26.125Z,94620.66
2022-12-29T11:43:52.397Z,94627.56
2022-12-29T11:46:18.749Z,94623.75
2022-12-29T11:48:45.180Z,94631.22
2022-12-29T11:51:11.438Z,94630.69
2022-12-29T11:53:37.695Z,94633.84
2022-12-29T11:56:04.004Z,94636.41
2022-12-29T11:58:30.288Z,94652.28
2022-12-29T12:00:56.553Z,94645.31
2022-12-29T12:03:22.974Z,94647.41
2022-12-29T12:05:49.284Z,94643.47
2022-12-29T12:08:20.750Z,94642.84
2022-12-29T12:10:47.644Z,94646.81
2022-12-29T12:13:13.893Z,94642.81
2022-12-29T12:15:45.380Z,94623.09
2022-12-29T12:18:12.367Z,94610.78
2022-12-29T12:20:39.157Z,94602.69
2022-12-29T12:23:05.401Z,94591.44
2022-12-29T12:25:31.644Z,94591.03
2022-12-29T12:27:57.880Z,94586.72
2022-12-29T12:30:24.145Z,94570.75
2022-12-29T12:32:50.553Z,94577.84
2022-12-29T12:35:21.622Z,94568.22
2022-12-29T12:37:48.301Z,94575.09
2022-12-29T12:40:14.584Z,94576.03
2022-12-29T12:42:40.845Z,94581.13
2022-12-29T12:45:07.127Z,94573.38
2022-12-29T12:47:33.378Z,94559.06
2022-12-29T12:49:59.613Z,94548.34
2022-12-29T12:52:25.967Z,94564.22
2022-12-29T12:54:52.242Z,94556.31
2022-12-29T12:57:18.502Z,94560.69
2022-12-29T12:59:44.753Z,94573.38
2022-12-29T13:02:11.135Z,94568.31
2022-12-29T13:04:37.435Z,94566.78
2022-12-29T13:07:03.714Z,94563.59
2022-12-29T13:09:29.981Z,94556.72
2022-12-29T13:11:56.234Z,94556.97
2022-12-29T13:14:22.515Z,94552.25
2022-12-29T13:16:48.794Z,94556.25
2022-12-29T13:19:15.053Z,94555.69
2022-12-29T13:21:41.312Z,94561.06
2022-12-29T13:24:07.586Z,94548.44
2022-12-29T13:26:33.857Z,94544.09
2022-12-29T13:29:00.133Z,94548.91
2022-12-29T13:31:26.419Z,94544.53
2022-12-29T13:33:52.690Z,94539.53
2022-12-29T13:36:19.080Z,94536.38
2022-12-29T13:38:45.342Z,94544.81
2022-12-29T13:41:11.578Z,94534.91
2022-12-29T13:43:37.818Z,94535.19
2022-12-29T13:46:04.111Z,94523.66
2022-12-29T13:48:30.406Z,94526.66
2022-12-29T13:50:56.690Z,94536.72
2022-12-29T13:53:22.936Z,94536.66
2022-12-29T13:55:49.196Z,94535.47
2022-12-29T13:58:15.443Z,94530.47
2022-12-29T14:00:41.691Z,94528.13
2022-12-29T14:03:08.144Z,94528.56
2022-12-29T14:05:34.507Z,94527.75
2022-12-29T14:08:00.791Z,94532.41
2022-12-29T14:10:27.033Z,94534.47
2022-12-29T14:12:53.296Z,94528.00
2022-12-29T14:15:19.544Z,94532.75
2022-12-29T14:17:45.795Z,94532.38
2022-12-29T14:20:12.095Z,94538.91
2022-12-29T14:22:38.356Z,94529.50
2022-12-29T14:25:04.625Z,94540.00
2022-12-29T14:27:30.872Z,94537.38
2022-12-29T14:29:57.121Z,94540.63
2022-12-29T14:32:23.387Z,94543.38
2022-12-29T14:34:52.545Z,94542.28
2022-12-29T14:37:19.111Z,94555.34
2022-12-29T14:39:45.385Z,94547.81
2022-12-29T14:42:11.698Z,94556.81
2022-12-29T14:44:37.978Z,94553.63
2022-12-29T14:47:04.315Z,94556.81
2022-12-29T14:49:30.724Z,94560.88
2022-12-29T14:51:56.977Z,94557.97
2022-12-29T14:54:23.232Z,94562.22
2022-12-29T14:56:49.474Z,94557.63
2022-12-29T14:59:15.725Z,94566.88
2022-12-29T15:01:42.158Z,94564.41
2022-12-29T15:04:08.569Z,94555.44
2022-12-29T15:06:34.837Z,94559.16
2022-12-29T15:09:01.087Z,94553.25
2022-12-29T15:11:27.341Z,94555.91
2022-12-29T15:13:53.591Z,94547.00
2022-12-29T15:16:19.923Z,94547.72
2022-12-29T15:18:46.182Z,94548.09
2022-12-29T15:21:12.446Z,94536.38
2022-12-29T15:23:38.714Z,94537.66
2022-12-29T15:26:04.995Z,94534.38
2022-12-29T15:28:31.237Z,94531.75
2022-12-29T15:30:57.482Z,94516.59
2022-12-29T15:33:23.739Z,94530.94
2022-12-29T15:35:49.991Z,94540.00
2022-12-29T15:38:16.233Z,94541.72
2022-12-29T15:40:42.476Z,94536.09
2022-12-29T15:43:08.720Z,94531.56
2022-12-29T15:45:35.030Z,94529.47
2022-12-29T15:48:01.363Z,94538.56
2022-12-29T15:50:27.629Z,94527.03
2022-12-29T15:52:53.871Z,94528.56
2022-12-29T15:55:20.125Z,94529.56
2022-12-29T15:57:46.389Z,94529.19
2022-12-29T16:00:12.662Z,94532.22
2022-12-29T16:02:39.176Z,94540.81
2022-12-29T16:05:21.033Z,94534.63
2022-12-29T16:07:47.321Z,94539.69
2022-12-29T16:10:13.577Z,94545.94
2022-12-29T16:12:39.817Z,94546.66
2022-12-29T16:15:06.068Z,94548.72
2022-12-29T16:17:32.338Z,94552.25
2022-12-29T16:19:58.593Z,94548.16
2022-12-29T16:22:24.865Z,94553.78
2022-12-29T16:24:51.126Z,94548.94
2022-12-29T16:27:17.378Z,94551.19
2022-12-29T16:29:43.629Z,94558.16
2022-12-29T16:32:09.891Z,94566.16
2022-12-29T16:34:36.141Z,94567.31
2022-12-29T16:37:02.405Z,94572.31
2022-12-29T16:39:28.673Z,94572.31
2022-12-29T16:41:55.021Z,94574.44
2022-12-29T16:44:21.279Z,94569.34
2022-12-29T16:46:47.513Z,94582.31
2022-12-29T16:49:13.760Z,94582.03
2022-12-29T16:51:40.026Z,94579.91
2022-12-29T16:54:06.402Z,94584.50
2022-12-29T16:56:32.641Z,94587.91
2022-12-29T16:58:58.882Z,94578.81
2022-12-29T17:01:25.210Z,94590.94
2022-12-29T17:03:51.569Z,94593.75
2022-12-29T17:06:17.884Z,94602.13
2022-12-29T17:08:44.136Z,94601.00
2022-12-29T17:11:10.368Z,94597.38
2022-12-29T17:13:36.609Z,94597.06
2022-12-29T17:16:02.947Z,94599.22
2022-12-29T17:18:29.267Z,94600.03
2022-12-29T17:20:55.521Z,94604.75
2022-12-29T17:23:26.296Z,94603.94
2022-12-29T17:25:53.073Z,94588.81
2022-12-29T17:28:19.311Z,94606.88
2022-12-29T17:30:45.581Z,94614.75
2022-12-29T17:33:11.854Z,94617.19
2022-12-29T17:35:38.126Z,94615.72
2022-12-29T17:38:04.373Z,94621.16
2022-12-29T17:40:30.649Z,94623.44
2022-12-29T17:42:56.909Z,94621.91
2022-12-29T17:45:23.171Z,94624.56
2022-12-29T17:47:49.447Z,94632.06
2022-12-29T17:50:15.710Z,94643.97
2022-12-29T17:52:41.971Z,94642.53
2022-12-29T17:55:08.234Z,94637.13
2022-12-29T17:57:34.497Z,94636.19
2022-12-29T18:00:00.764Z,94636.38
2022-12-29T18:02:27.205Z,94639.97
2022-12-29T18:04:53.559Z,94646.91
2022-12-29T18:07:19.816Z,94649.50
2022-12-29T18:09:46.072Z,94652.81
2022-12-29T18:12:12.315Z,94652.31
2022-12-29T18:14:38.560Z,94646.19
2022-12-29T18:17:04.799Z,94640.22
2022-12-29T18:19:35.771Z,94644.28
2022-12-29T18:22:02.388Z,94641.31
2022-12-29T18:24:28.636Z,94631.91
2022-12-29T18:26:54.885Z,94630.50
2022-12-29T18:29:21.129Z,94632.19
2022-12-29T18:31:47.421Z,94636.09
2022-12-29T18:34:13.727Z,94630.72
2022-12-29T18:36:40.009Z,94625.31
2022-12-29T18:39:06.305Z,94625.13
2022-12-29T18:41:32.566Z,94615.25
2022-12-29T18:43:58.852Z,94615.47
2022-12-29T18:46:25.172Z,94612.31
2022-12-29T18:48:51.526Z,94619.88
2022-12-29T18:51:17.829Z,94620.00
2022-12-29T18:53:44.076Z,94622.06
2022-12-29T18:56:10.332Z,94624.69
2022-12-29T18:58:36.598Z,94627.84
2022-12-29T19:01:02.910Z,94637.00
2022-12-29T19:03:29.359Z,94635.19
2022-12-29T19:05:55.649Z,94639.63
2022-12-29T19:08:21.926Z,94646.19
2022-12-29T19:10:48.174Z,94647.00
2022-12-29T19:13:14.432Z,94653.41
2022-12-29T19:15:40.745Z,94650.13
2022-12-29T19:18:42.290Z,94652.72
2022-12-29T19:20:53.267Z,94655.88
2022-12-29T19:23:19.542Z,94653.25
2022-12-29T19:25:45.808Z,94650.31
2022-12-29T19:28:12.063Z,94658.84
2022-12-29T19:30:38.328Z,94654.34
2022-12-29T19:33:09.602Z,94653.41
2022-12-29T19:35:36.366Z,94660.47
2022-12-29T19:38:02.625Z,94658.66
2022-12-29T19:40:28.897Z,94655.56
2022-12-29T19:42:55.143Z,94654.72
2022-12-29T19:45:21.389Z,94652.09
2022-12-29T19:47:47.629Z,94652.44
2022-12-29T19:50:13.893Z,94654.06
2022-12-29T19:52:40.137Z,94648.09
2022-12-29T19:55:06.401Z,94655.69
2022-12-29T19:57:32.784Z,94640.75
2022-12-29T19:59:59.027Z,94642.69
2022-12-29T20:02:25.440Z,94641.88
2022-12-29T20:04:51.872Z,94653.31
2022-12-29T20:07:18.219Z,94654.03
2022-12-29T20:09:44.545Z,94653.66
2022-12-29T20:12:10.840Z,94652.53
2022-12-29T20:14:37.104Z,94651.41
2022-12-29T20:17:11.239Z,94653.72
2022-12-29T20:19:38.179Z,94652.09
2022-12-29T20:22:04.444Z,94644.19
2022-12-29T20:24:30.700Z,94662.91
2022-12-29T20:26:56.949Z,94661.59
2022-12-29T20:29:23.212Z,94659.97
2022-12-29T20:31:49.559Z,94663.38
2022-12-29T20:34:15.835Z,94663.50
2022-12-29T20:36:42.074Z,94668.78
2022-12-29T20:39:08.347Z,94662.72
2022-12-29T20:41:34.596Z,94664.84
2022-12-29T20:44:00.852Z,94662.19
2022-12-29T20:46:33.943Z,94664.19
2022-12-29T20:49:05.580Z,94656.97
2022-12-29T20:51:55.287Z,94656.69
2022-12-29T20:54:18.038Z,94657.34
2022-12-29T20:56:44.310Z,94662.41
2022-12-29T20:59:27.447Z,94668.16
2022-12-29T21:01:54.253Z,94664.75
2022-12-29T21:04:20.623Z,94668.31
2022-12-29T21:06:46.856Z,94666.84
2022-12-29T21:09:13.091Z,94664.03
2022-12-29T21:11:39.349Z,94657.97
2022-12-29T21:14:05.611Z,94661.47
2022-12-29T21:16:31.904Z,94665.22
2022-12-29T21:18:58.156Z,94668.19
2022-12-29T21:21:24.405Z,94662.50
2022-12-29T21:23:50.662Z,94658.69
2022-12-29T21:26:16.924Z,94649.53
2022-12-29T21:28:43.197Z,94652.47
2022-12-29T21:31:09.515Z,94663.66
2022-12-29T21:33:35.784Z,94658.38
2022-12-29T21:36:02.039Z,94656.75
2022-12-29T21:38:28.285Z,94661.19
2022-12-29T21:40:54.543Z,94665.56
2022-12-29T21:43:20.789Z,94665.66
2022-12-29T21:45:47.096Z,94663.94
2022-12-29T21:48:13.388Z,94667.53
2022-12-29T21:50:39.638Z,94666.06
2022-12-29T21:53:05.895Z,94675.63
2022-12-29T21:55:32.153Z,94679.41
2022-12-29T21:57:58.403Z,94672.03
2022-12-29T22:00:24.677Z,94676.44
2022-12-29T22:02:51.118Z,94680.69
2022-12-29T22:05:17.508Z,94671.53
2022-12-29T22:07:43.767Z,94671.56
2022-12-29T22:10:10.034Z,94675.41
2022-12-29T22:12:36.282Z,94685.66
2022-12-29T22:15:02.544Z,94673.31
2022-12-29T22:17:30.194Z,94683.97
2022-12-29T22:19:57.947Z,94681.66
2022-12-29T22:22:24.196Z,94692.66
2022-12-29T22:24:50.460Z,94686.63
2022-12-29T22:27:16.704Z,94697.41
2022-12-29T22:29:42.957Z,94696.13
2022-12-29T22:32:09.220Z,94696.94
2022-12-29T22:34:35.483Z,94701.72
2022-12-29T22:37:01.789Z,94714.25
2022-12-29T22:39:28.066Z,94715.91
2022-12-29T22:41:54.309Z,94709.25
2022-12-29T22:44:20.572Z,94711.88
2022-12-29T22:46:46.854Z,94719.25
2022-12-29T22:49:13.137Z,94723.53
2022-12-29T22:51:39.397Z,94728.78
2022-12-29T22:54:05.635Z,94730.09
2022-12-29T22:56:31.868Z,94732.53
2022-12-29T22:58:58.129Z,94730.44
2022-12-29T23:01:24.507Z,94726.81
2022-12-29T23:03:50.907Z,94728.91
2022-12-29T23:06:17.240Z,94731.88
2022-12-29T23:08:43.482Z,94729.88
2022-12-29T23:11:09.708Z,94724.47
2022-12-29T23:13:35.991Z,94732.34
2022-12-29T23:16:02.295Z,94733.00
2022-12-29T23:18:28.584Z,94732.97
2022-12-29T23:20:54.831Z,94742.50
2022-12-29T23:23:21.093Z,94736.91
2022-12-29T23:25:47.349Z,94736.06
2022-12-29T23:28:13.605Z,94736.63
2022-12-29T23:30:39.874Z,94744.63
2022-12-29T23:33:06.138Z,94749.88
2022-12-29T23:35:32.389Z,94750.41
2022-12-29T23:37:58.641Z,94753.34
2022-12-29T23:40:24.911Z,94749.75
2022-12-29T23:42:51.149Z,94750.41
2022-12-29T23:45:17.412Z,94753.31
2022-12-29T23:47:43.688Z,94751.84
2022-12-29T23:50:09.949Z,94754.97
2022-12-29T23:52:36.197Z,94751.88
2022-12-29T23:55:02.446Z,94754.19
2022-12-29T23:57:28.682Z,94770.78
2022-12-29T23:59:54.923Z,94765.66
